Hersham, United Kingdom

11:27 AM BST on September 05, 2015 (GMT +0100)
Hersham | | Change Station
CLOSE
Current Station
Personal Weather Station
Location: Walton-on-Thames, Surrey
Elevation: 56 ft
Nearby Weather Stations

Elev 56 ft 51.37 °N, 0.41 °W | Updated 4 seconds ago

Scattered Clouds
Scattered Clouds
56.9 °F
Feels Like 56.9 °F
N
1.0
Wind Variable Wind from East
Gusts 2.0 mph

Today
High -- | Low -- °F
--% Chance of Precip.
Yesterday
High -- | Low -- °F
Precip. -- in
6:20 AM 7:39 PM
Waning Gibbous, 50% visible
Pressure 30.15 in
Visibility 6.2 miles
Clouds Scattered Clouds 1500 ft
Scattered Clouds 2200 ft
Dew Point 52 °F
Humidity 84%
Rainfall 0.00 in
Snow Depth Not available.
UV 4 out of 12
Pollen Not available.
Air Quality Not available.
Flu Activity Not available.
METAR EGLL 051020Z 02007KT 340V050 9999 SCT015 SCT022 14/10 Q1021 NOSIG
Pressure 30.15 in
Visibility 6.2 miles
Clouds Scattered Clouds 1500 ft
Scattered Clouds 2200 ft
Dew Point 52 °F
Humidity 84%
Rainfall 0.00 in
Snow Depth Not available.
UV 4 out of 12
Pollen Not available.
Air Quality Not available.
Flu Activity Not available.
METAR EGLL 051020Z 02007KT 340V050 9999 SCT015 SCT022 14/10 Q1021 NOSIG

10-Day Weather Forecast

×

Almanac

Astronomy

Sep. 05, 2015 Rise Set
Actual Time
Civil Twilight
Nautical Twilight
Astronomical Twilight
Moon
Length of Visible Light
Length of Day
Tomorrow will be .
, % of the Moon is Illuminated

Today's Extremes

Country Highs Country Lows

Community

WunderPhotos

Upload Photos

1,852,440 photos uploaded!

WunderBlogs® & News

Nearby

Air Quality

  Air Quality AQ Index Pollutant
Not available.

Snow Depth

Station Depth Elevation

Earthquake Activity

City Distance Mag. Time & Date
Minimum magnitude displayed is 2.5.

Coastal Water Temperatures

Place Temperature

Stations

Nearby Weather Stations

Station Location Temp. Windchill Dew Point Humidity Wind Precip. Elev Updated Type